Track Логвинчук Евгений

Time Latitude Longitude Accuracy (66% radius in meters) Altitude (meters) Speed (km/hour) Bearing (degrees) Battery (%) GPS flag
08:55:43 60.370758 29.556701 0 0 0 0 1 delete
08:55:40 60.370737 29.556729 0 0 0 0 1 delete
08:55:38 60.370714 29.556795 0 0 0 0 1 delete
08:55:36 60.370634 29.556922 0 0 0 0 1 delete
08:55:34 60.370582 29.557151 0 0 0 0 1 delete
08:55:32 60.370637 29.557378 0 0 0 0 1 delete
08:55:30 60.370785 29.557363 0 0 0 0 1 delete
08:55:28 60.370897 29.557174 0 0 0 0 1 delete
08:55:26 60.371023 29.556960 0 0 0 0 1 delete
08:55:24 60.371144 29.556866 0 0 0 0 1 delete
08:55:21 60.371217 29.557042 0 0 0 0 1 delete
08:55:19 60.371168 29.557299 0 0 0 0 1 delete
08:55:18 60.371126 29.557501 0 0 0 0 1 delete
08:55:17 60.371079 29.557686 0 0 0 0 1 delete
08:55:16 60.371027 29.557883 0 0 0 0 1 delete
08:55:13 60.370951 29.558044 0 0 0 0 1 delete
08:55:11 60.370865 29.558206 0 0 0 0 1 delete
08:55:09 60.370769 29.558338 0 0 0 0 1 delete
08:55:07 60.370637 29.558435 0 0 0 0 1 delete
08:55:05 60.370487 29.558526 0 0 0 0 1 delete
08:55:03 60.370343 29.558620 0 0 0 0 1 delete
08:55:01 60.370223 29.558647 0 0 0 0 1 delete
08:54:59 60.370127 29.558612 0 0 0 0 1 delete
08:54:58 60.370081 29.558589 0 0 0 0 1 delete
08:54:57 60.370040 29.558566 0 0 0 0 1 delete
08:54:56 60.370001 29.558560 0 0 0 0 1 delete
08:54:55 60.369970 29.558572 0 0 0 0 1 delete
08:54:53 60.369933 29.558597 0 0 0 0 1 delete
08:54:51 60.369878 29.558641 0 0 0 0 1 delete
08:54:49 60.369791 29.558714 0 0 0 0 1 delete
08:54:47 60.369689 29.558781 0 0 0 0 1 delete
08:54:44 60.369569 29.558869 0 0 0 0 1 delete
08:54:41 60.369461 29.558969 0 0 0 0 1 delete
08:54:38 60.369345 29.559023 0 0 0 0 1 delete
08:54:35 60.369275 29.559152 0 0 0 0 1 delete
08:54:34 60.369261 29.559252 0 0 0 0 1 delete
08:54:33 60.369238 29.559365 0 0 0 0 1 delete
08:54:32 60.369223 29.559469 0 0 0 0 1 delete
08:54:31 60.369208 29.559555 0 0 0 0 1 delete
08:54:30 60.369194 29.559631 0 0 0 0 1 delete
08:54:29 60.369171 29.559675 0 0 0 0 1 delete
08:54:28 60.369136 29.559695 0 0 0 0 1 delete
08:54:27 60.369098 29.559690 0 0 0 0 1 delete
08:54:26 60.369058 29.559680 0 0 0 0 1 delete
08:54:25 60.369016 29.559676 0 0 0 0 1 delete
08:54:24 60.368976 29.559670 0 0 0 0 1 delete
08:54:23 60.368945 29.559682 0 0 0 0 1 delete
08:54:22 60.368927 29.559710 0 0 0 0 1 delete
08:54:21 60.368907 29.559741 0 0 0 0 1 delete
08:54:20 60.368886 29.559774 0 0 0 0 1 delete